createdAt,value
2017-11-25T00:02:14.639Z,11.30
2017-11-25T00:04:41.284Z,11.30
2017-11-25T00:09:47.135Z,11.30
2017-11-25T00:12:24.023Z,11.30
2017-11-25T00:14:50.664Z,11.30
2017-11-25T00:17:18.431Z,11.30
2017-11-25T00:19:54.080Z,11.30
2017-11-25T00:22:21.461Z,11.30
2017-11-25T00:27:27.566Z,11.30
2017-11-25T00:30:06.036Z,11.30
2017-11-25T00:32:32.677Z,11.30
2017-11-25T00:34:59.322Z,11.30
2017-11-25T00:37:30.467Z,11.30
2017-11-25T00:42:36.431Z,11.30
2017-11-25T00:45:12.080Z,11.30
2017-11-25T00:47:38.719Z,11.30
2017-11-25T00:50:12.004Z,11.30
2017-11-25T00:52:38.652Z,11.30
2017-11-25T01:00:22.593Z,11.40
2017-11-25T01:05:28.572Z,11.30
2017-11-25T01:08:00.479Z,11.30
2017-11-25T01:13:06.461Z,11.30
2017-11-25T01:20:50.498Z,11.30
2017-11-25T01:23:24.036Z,11.30
2017-11-25T01:25:51.348Z,11.30
2017-11-25T01:28:30.124Z,11.30
2017-11-25T01:30:56.763Z,11.30
2017-11-25T01:33:24.541Z,11.30
2017-11-25T01:38:30.519Z,11.30
2017-11-25T01:43:36.268Z,11.30
2017-11-25T01:48:41.270Z,11.20
2017-11-25T01:51:18.131Z,11.20
2017-11-25T01:53:44.763Z,11.20
2017-11-25T02:01:30.499Z,11.20
2017-11-25T02:04:06.137Z,11.20
2017-11-25T02:06:34.259Z,11.20
2017-11-25T02:09:00.883Z,11.20
2017-11-25T02:11:27.541Z,11.20
2017-11-25T02:13:54.541Z,11.20
2017-11-25T02:18:59.920Z,11.20
2017-11-25T02:24:06.297Z,11.20
2017-11-25T02:26:42.141Z,11.30
2017-11-25T02:29:08.785Z,11.30
2017-11-25T02:36:52.909Z,11.20
2017-11-25T02:39:30.188Z,11.20
2017-11-25T02:41:56.863Z,11.20
2017-11-25T02:49:42.867Z,11.20
2017-11-25T02:54:48.496Z,11.20
2017-11-25T02:59:54.183Z,11.20
2017-11-25T03:02:30.125Z,11.20
2017-11-25T03:04:56.757Z,11.30
2017-11-25T03:07:36.111Z,11.20
2017-11-25T03:10:02.733Z,11.20
2017-11-25T03:12:30.527Z,11.20
2017-11-25T03:15:06.163Z,11.20
2017-11-25T03:17:33.452Z,11.20
2017-11-25T03:27:56.224Z,11.20
2017-11-25T03:30:24.499Z,11.20
2017-11-25T03:32:51.174Z,11.20
2017-11-25T03:35:24.128Z,11.20
2017-11-25T03:37:50.799Z,11.20
2017-11-25T03:43:00.572Z,11.20
2017-11-25T03:48:06.542Z,11.20
2017-11-25T03:53:12.239Z,11.20
2017-11-25T03:55:38.855Z,11.20
2017-11-25T03:58:05.610Z,11.20
2017-11-25T04:03:10.915Z,11.20
2017-11-25T04:08:18.776Z,11.20
2017-11-25T04:13:30.176Z,11.20
2017-11-25T04:15:56.820Z,11.20
2017-11-25T04:23:43.122Z,11.20
2017-11-25T04:36:43.810Z,11.20
2017-11-25T04:39:18.838Z,11.20
2017-11-25T04:44:30.587Z,11.20
2017-11-25T04:52:14.198Z,11.20
2017-11-25T04:54:48.168Z,11.20
2017-11-25T05:00:00.192Z,11.20
2017-11-25T05:02:26.875Z,11.20
2017-11-25T05:04:54.651Z,11.20
2017-11-25T05:10:00.579Z,11.20
2017-11-25T05:15:05.962Z,11.20
2017-11-25T05:17:32.598Z,11.20
2017-11-25T05:20:00.567Z,11.20
2017-11-25T05:22:27.187Z,11.20
2017-11-25T05:25:00.167Z,11.20
2017-11-25T05:27:26.823Z,11.20
2017-11-25T05:29:54.603Z,11.20
2017-11-25T05:32:21.218Z,11.20
2017-11-25T05:35:00.151Z,11.20
2017-11-25T05:37:30.588Z,11.20
2017-11-25T05:40:00.615Z,11.20
2017-11-25T05:42:36.146Z,11.20
2017-11-25T05:45:12.220Z,11.20
2017-11-25T05:47:39.394Z,11.20
2017-11-25T05:50:06.044Z,11.20
2017-11-25T05:55:13.395Z,11.20
2017-11-25T05:57:40.052Z,11.20
2017-11-25T06:02:54.219Z,11.20
2017-11-25T06:05:20.918Z,11.20
2017-11-25T06:13:06.590Z,11.20
2017-11-25T06:15:42.238Z,11.20
2017-11-25T06:18:08.869Z,11.20
2017-11-25T06:20:36.660Z,11.20
2017-11-25T06:25:42.654Z,11.20
2017-11-25T06:31:00.178Z,11.20
2017-11-25T06:33:27.394Z,11.20
2017-11-25T06:36:06.239Z,11.20
2017-11-25T06:38:42.208Z,11.20
2017-11-25T06:41:09.668Z,11.20
2017-11-25T06:43:36.297Z,11.20
2017-11-25T06:46:12.259Z,11.10
2017-11-25T06:48:38.898Z,11.20
2017-11-25T06:59:12.648Z,11.20
2017-11-25T07:01:39.293Z,11.20
2017-11-25T07:04:05.936Z,11.10
2017-11-25T07:06:32.587Z,11.20
2017-11-25T07:09:00.099Z,11.20
2017-11-25T07:11:36.204Z,11.10
2017-11-25T07:14:02.868Z,11.10
2017-11-25T07:16:29.508Z,11.10
2017-11-25T07:18:56.155Z,11.10
2017-11-25T07:24:02.048Z,11.10
2017-11-25T07:26:31.704Z,11.10
2017-11-25T07:31:37.690Z,11.10
2017-11-25T07:34:04.991Z,11.10
2017-11-25T07:36:31.636Z,11.10
2017-11-25T07:41:37.273Z,11.10
2017-11-25T07:46:42.611Z,11.10
2017-11-25T07:51:47.998Z,11.10
2017-11-25T07:54:24.251Z,11.10
2017-11-25T07:56:50.884Z,11.10
2017-11-25T07:59:18.667Z,11.10
2017-11-25T08:04:25.203Z,11.10
2017-11-25T08:06:51.871Z,11.10
2017-11-25T08:09:18.504Z,11.10
2017-11-25T08:17:12.244Z,11.30
2017-11-25T08:19:38.876Z,11.40
2017-11-25T08:22:06.660Z,11.60
2017-11-25T08:24:42.296Z,11.60
2017-11-25T08:27:08.939Z,11.70
2017-11-25T08:29:36.717Z,11.80
2017-11-25T08:34:42.670Z,12.00
2017-11-25T08:37:09.314Z,12.10
2017-11-25T08:39:48.247Z,12.20
2017-11-25T08:42:14.891Z,12.20
2017-11-25T08:44:41.515Z,12.20
2017-11-25T08:47:18.293Z,12.30
2017-11-25T08:49:44.958Z,12.40
2017-11-25T08:52:11.579Z,12.50
2017-11-25T08:59:56.076Z,12.40
2017-11-25T09:02:24.698Z,12.50
2017-11-25T09:07:30.512Z,12.60
2017-11-25T09:09:57.551Z,12.80
2017-11-25T09:12:30.686Z,12.80
2017-11-25T09:15:03.087Z,13.00
2017-11-25T09:20:08.176Z,12.90
2017-11-25T09:22:36.783Z,13.00
2017-11-25T09:39:03.269Z,13.00
2017-11-25T09:41:30.744Z,13.00
2017-11-25T09:46:36.429Z,13.10
2017-11-25T09:49:06.769Z,13.20
2017-11-25T09:54:12.644Z,13.20
2017-11-25T09:56:39.669Z,13.00
2017-11-25T09:59:06.326Z,13.00
2017-11-25T10:01:42.268Z,12.90
2017-11-25T10:04:12.760Z,12.90
2017-11-25T10:06:42.693Z,12.80
2017-11-25T10:09:09.869Z,12.80
2017-11-25T10:11:36.763Z,12.70
2017-11-25T10:16:42.763Z,12.60
2017-11-25T10:19:09.993Z,12.60
2017-11-25T10:21:36.948Z,12.60
2017-11-25T10:24:04.152Z,12.50
2017-11-25T10:26:42.321Z,12.50
2017-11-25T10:29:08.964Z,12.50
2017-11-25T10:31:35.617Z,12.40
2017-11-25T10:34:02.253Z,12.40
2017-11-25T10:36:36.291Z,12.40
2017-11-25T10:39:06.667Z,12.40
2017-11-25T10:41:33.337Z,12.40
2017-11-25T10:43:59.980Z,12.40
2017-11-25T10:46:26.622Z,12.30
2017-11-25T10:48:53.856Z,12.30
2017-11-25T10:51:20.478Z,12.30
2017-11-25T10:56:30.678Z,12.30
2017-11-25T10:58:57.320Z,12.30
2017-11-25T11:01:23.964Z,12.30
2017-11-25T11:03:50.627Z,12.30
2017-11-25T11:06:17.270Z,12.20
2017-11-25T11:08:43.913Z,12.20
2017-11-25T11:11:12.749Z,12.20
2017-11-25T11:13:39.396Z,12.20
2017-11-25T11:16:06.037Z,12.20
2017-11-25T11:18:32.695Z,12.10
2017-11-25T11:20:59.315Z,12.10
2017-11-25T11:23:30.776Z,12.10
2017-11-25T11:25:57.965Z,12.10
2017-11-25T11:28:24.705Z,12.10
2017-11-25T11:30:51.350Z,12.10
2017-11-25T11:33:18.676Z,12.10
2017-11-25T11:35:45.376Z,12.10
2017-11-25T11:38:12.009Z,12.10
2017-11-25T11:45:55.774Z,12.00
2017-11-25T11:48:22.404Z,12.00
2017-11-25T11:50:49.048Z,12.00
2017-11-25T11:53:15.679Z,11.90
2017-11-25T11:55:42.317Z,11.90
2017-11-25T11:58:08.965Z,11.90
2017-11-25T12:00:35.615Z,11.90
2017-11-25T12:03:12.304Z,11.90
2017-11-25T12:05:38.957Z,11.90
2017-11-25T12:08:05.589Z,11.90
2017-11-25T12:10:32.564Z,11.90
2017-11-25T12:12:59.220Z,11.90
2017-11-25T12:15:25.841Z,11.90
2017-11-25T12:17:52.509Z,11.90
2017-11-25T12:20:19.135Z,12.00
2017-11-25T12:22:45.779Z,12.10
2017-11-25T12:25:12.408Z,12.20
2017-11-25T12:27:39.053Z,12.30
2017-11-25T12:30:05.691Z,12.40
2017-11-25T12:32:32.331Z,12.50
2017-11-25T13:12:05.948Z,13.30
2017-11-25T13:22:36.623Z,13.30
2017-11-25T13:54:13.528Z,13.70
2017-11-25T13:56:40.216Z,13.80
2017-11-25T13:59:06.908Z,13.80
2017-11-25T14:01:33.603Z,13.80
2017-11-25T14:04:00.315Z,13.70
2017-11-25T14:06:36.432Z,13.80
2017-11-25T14:54:09.315Z,14.20
2017-11-25T14:56:48.781Z,14.10
2017-11-25T14:59:15.464Z,14.20
2017-11-25T15:01:42.142Z,14.20
2017-11-25T15:04:08.843Z,14.20
2017-11-25T15:06:36.059Z,14.40
2017-11-25T15:24:57.025Z,14.30
2017-11-25T15:27:23.719Z,14.40
2017-11-25T15:30:00.519Z,14.30
2017-11-25T15:32:27.202Z,14.30
2017-11-25T15:34:54.900Z,14.40
2017-11-25T15:39:59.953Z,14.30
2017-11-25T15:42:26.626Z,14.30
2017-11-25T15:44:53.420Z,14.50
2017-11-25T15:47:20.175Z,14.40
2017-11-25T15:49:46.925Z,14.40
2017-11-25T15:52:13.625Z,14.40
2017-11-25T15:54:40.412Z,14.50
2017-11-25T15:57:07.131Z,14.50
2017-11-25T15:59:42.484Z,14.50
2017-11-25T16:02:09.201Z,14.60
2017-11-25T16:04:35.936Z,14.60
2017-11-25T16:07:12.689Z,14.50
2017-11-25T16:09:39.433Z,14.50
2017-11-25T16:12:06.120Z,14.60
2017-11-25T16:14:32.874Z,14.60
2017-11-25T16:17:00.940Z,14.60
2017-11-25T16:19:27.627Z,14.60
2017-11-25T16:21:54.896Z,14.70
2017-11-25T16:24:21.625Z,14.70
2017-11-25T16:26:48.901Z,14.70
2017-11-25T16:29:15.596Z,14.70
2017-11-25T16:34:24.910Z,14.80
2017-11-25T16:37:00.498Z,14.90
2017-11-25T16:39:30.885Z,14.90
2017-11-25T16:41:57.644Z,14.80
2017-11-25T16:44:24.434Z,14.80
2017-11-25T16:46:51.142Z,14.90
2017-11-25T16:49:17.852Z,14.80
2017-11-25T16:51:44.535Z,14.80
2017-11-25T16:54:11.259Z,14.90
2017-11-25T16:56:42.955Z,14.90
2017-11-25T17:02:00.479Z,14.70
2017-11-25T17:04:30.924Z,14.60
2017-11-25T17:06:57.603Z,14.40
2017-11-25T17:12:02.830Z,14.30
2017-11-25T17:14:29.548Z,14.20
2017-11-25T17:17:06.562Z,14.20
2017-11-25T17:19:33.280Z,14.10
2017-11-25T17:21:59.974Z,14.00
2017-11-25T17:24:36.514Z,14.00
2017-11-25T17:53:33.262Z,13.60
2017-11-25T17:56:06.625Z,13.60
2017-11-25T18:04:02.741Z,13.50
2017-11-25T18:09:07.823Z,13.50
2017-11-25T18:11:34.612Z,13.40
2017-11-25T18:19:19.585Z,13.30
2017-11-25T18:21:48.951Z,13.30
2017-11-25T18:26:54.558Z,13.30
2017-11-25T18:29:21.290Z,13.30
2017-11-25T18:31:48.047Z,13.30
2017-11-25T18:34:14.793Z,13.20
2017-11-25T18:36:41.578Z,13.20
2017-11-25T18:39:08.338Z,13.20
2017-11-25T18:57:27.797Z,13.10
2017-11-25T18:59:54.624Z,13.00
2017-11-25T19:02:21.377Z,13.00
2017-11-25T19:04:48.118Z,13.00
2017-11-25T19:07:14.866Z,13.00
2017-11-25T19:09:48.576Z,13.00
2017-11-25T19:12:15.326Z,12.90
2017-11-25T19:14:42.111Z,12.90
2017-11-25T19:17:08.802Z,12.90
2017-11-25T19:19:42.664Z,12.90
2017-11-25T19:22:09.462Z,12.90
2017-11-25T19:27:15.926Z,12.80
2017-11-25T19:29:42.635Z,12.80
2017-11-25T19:32:13.820Z,12.80
2017-11-25T19:39:59.015Z,12.80
2017-11-25T19:45:06.975Z,12.70
2017-11-25T19:47:33.669Z,12.70
2017-11-25T19:50:00.340Z,12.70
2017-11-25T19:52:27.023Z,12.70
2017-11-25T19:54:53.703Z,12.70
2017-11-25T19:57:20.417Z,12.70
2017-11-25T20:02:31.025Z,12.60
2017-11-25T20:04:57.730Z,12.60
2017-11-25T20:07:24.431Z,12.60
2017-11-25T20:09:51.195Z,12.60
2017-11-25T20:12:17.934Z,12.60
2017-11-25T20:14:49.072Z,12.60
2017-11-25T20:17:15.766Z,12.50
2017-11-25T20:19:42.515Z,12.50
2017-11-25T20:22:13.132Z,12.50
2017-11-25T20:24:40.663Z,12.50
2017-11-25T20:27:07.456Z,12.50
2017-11-25T20:29:34.250Z,12.50
2017-11-25T20:32:01.119Z,12.40
2017-11-25T20:34:27.910Z,12.40
2017-11-25T20:36:54.640Z,12.40
2017-11-25T20:42:00.326Z,12.40
2017-11-25T20:44:27.058Z,12.40
2017-11-25T20:49:32.972Z,12.40
2017-11-25T21:15:52.224Z,12.30
2017-11-25T21:28:54.240Z,12.20
2017-11-25T21:31:20.960Z,12.20
2017-11-25T21:33:47.685Z,12.20
2017-11-25T21:36:19.036Z,12.30
2017-11-25T21:41:25.190Z,12.50
2017-11-25T21:46:31.131Z,12.80
2017-11-25T21:48:57.853Z,12.90
2017-11-25T21:51:24.540Z,13.00
2017-11-25T21:53:51.282Z,13.00
2017-11-25T21:56:18.005Z,13.10
2017-11-25T21:58:44.708Z,13.10
2017-11-25T22:01:18.736Z,13.20
2017-11-25T22:03:45.501Z,13.20
2017-11-25T22:06:18.718Z,13.30
2017-11-25T22:11:23.849Z,13.30
2017-11-25T22:29:44.532Z,13.70
2017-11-25T22:32:11.649Z,13.80
2017-11-25T22:34:38.346Z,13.80
2017-11-25T22:45:01.573Z,13.90
2017-11-25T22:47:28.237Z,13.90
2017-11-25T22:52:37.188Z,14.00
2017-11-25T22:55:04.049Z,14.00
2017-11-25T22:57:30.791Z,14.10
2017-11-25T23:23:49.381Z,14.40
2017-11-25T23:26:16.175Z,14.40
2017-11-25T23:28:49.759Z,14.40
2017-11-25T23:36:33.460Z,14.30
2017-11-25T23:39:00.100Z,14.40
2017-11-25T23:41:27.225Z,14.40
2017-11-25T23:44:06.712Z,14.60
2017-11-25T23:46:37.151Z,14.50
2017-11-25T23:49:03.829Z,14.60
2017-11-25T23:51:30.454Z,14.60
2017-11-25T23:53:57.107Z,14.60
2017-11-25T23:59:02.249Z,14.70
